createdAt,value
2018-08-09T00:02:26.262Z,7.80
2018-08-09T00:04:53.690Z,6.60
2018-08-09T00:07:21.053Z,7.40
2018-08-09T00:09:48.425Z,6.80
2018-08-09T00:12:15.805Z,7.23
2018-08-09T00:14:43.170Z,8.23
2018-08-09T00:17:10.526Z,7.10
2018-08-09T00:19:37.877Z,7.63
2018-08-09T00:22:05.274Z,7.50
2018-08-09T00:24:32.605Z,8.83
2018-08-09T00:26:59.989Z,8.30
2018-08-09T00:29:27.373Z,7.40
2018-08-09T00:31:54.735Z,7.77
2018-08-09T00:34:22.130Z,7.60
2018-08-09T00:36:49.477Z,7.77
2018-08-09T00:39:16.810Z,7.33
2018-08-09T00:41:47.910Z,7.10
2018-08-09T00:44:15.257Z,7.53
2018-08-09T00:46:42.612Z,7.60
2018-08-09T00:49:09.973Z,8.20
2018-08-09T00:51:37.494Z,8.37
2018-08-09T00:54:05.068Z,7.30
2018-08-09T00:56:32.469Z,8.60
2018-08-09T00:58:59.877Z,7.97
2018-08-09T01:01:27.219Z,7.83
2018-08-09T01:03:54.623Z,7.90
2018-08-09T01:06:22.010Z,7.37
2018-08-09T01:08:55.260Z,8.30
2018-08-09T01:11:22.685Z,7.87
2018-08-09T01:13:50.033Z,7.80
2018-08-09T01:16:17.405Z,8.23
2018-08-09T01:18:44.765Z,9.10
2018-08-09T01:21:12.148Z,7.53
2018-08-09T01:23:39.500Z,7.27
2018-08-09T01:26:06.855Z,8.70
2018-08-09T01:28:34.205Z,8.77
2018-08-09T01:31:01.547Z,8.80
2018-08-09T01:33:28.908Z,8.03
2018-08-09T01:35:56.265Z,8.47
2018-08-09T01:38:23.617Z,8.67
2018-08-09T01:40:50.965Z,8.03
2018-08-09T01:43:29.933Z,8.70
2018-08-09T01:45:57.681Z,8.47
2018-08-09T01:48:25.056Z,9.20
2018-08-09T01:50:52.418Z,9.37
2018-08-09T01:53:19.817Z,8.30
2018-08-09T01:55:47.241Z,8.60
2018-08-09T01:58:14.592Z,8.50
2018-08-09T02:00:41.957Z,8.23
2018-08-09T02:03:09.361Z,8.43
2018-08-09T02:05:36.713Z,9.17
2018-08-09T02:08:04.165Z,9.20
2018-08-09T02:10:31.502Z,8.37
2018-08-09T02:12:58.850Z,9.47
2018-08-09T02:15:26.234Z,8.70
2018-08-09T02:17:53.589Z,9.00
2018-08-09T02:20:20.938Z,9.40
2018-08-09T02:22:50.377Z,9.40
2018-08-09T02:25:17.731Z,9.47
2018-08-09T02:27:45.069Z,10.10
2018-08-09T02:30:12.450Z,10.40
2018-08-09T02:32:39.785Z,8.90
2018-08-09T02:35:07.197Z,9.73
2018-08-09T02:37:34.553Z,9.67
2018-08-09T02:40:01.913Z,10.47
2018-08-09T02:42:29.268Z,9.87
2018-08-09T02:44:56.618Z,9.57
2018-08-09T02:47:23.953Z,10.20
2018-08-09T02:49:51.314Z,9.03
2018-08-09T02:52:18.687Z,9.80
2018-08-09T02:54:46.052Z,9.10
2018-08-09T02:57:13.417Z,9.97
2018-08-09T02:59:40.818Z,9.33
2018-08-09T03:02:08.189Z,10.07
2018-08-09T03:04:35.589Z,8.60
2018-08-09T03:07:02.970Z,9.50
2018-08-09T03:09:30.333Z,10.23
2018-08-09T03:11:57.685Z,9.80
2018-08-09T03:14:25.053Z,8.43
2018-08-09T03:16:52.406Z,9.53
2018-08-09T03:19:19.756Z,9.13
2018-08-09T03:21:47.117Z,9.47
2018-08-09T03:24:14.502Z,8.93
2018-08-09T03:26:41.811Z,10.87
2018-08-09T03:29:09.177Z,10.60
2018-08-09T03:31:36.513Z,10.87
2018-08-09T03:34:03.861Z,10.00
2018-08-09T03:36:31.233Z,10.77
2018-08-09T03:38:58.593Z,9.90
2018-08-09T03:41:28.969Z,10.13
2018-08-09T03:43:56.333Z,9.53
2018-08-09T03:46:23.690Z,9.47
2018-08-09T03:48:51.037Z,9.53
2018-08-09T03:51:18.402Z,11.40
2018-08-09T03:53:45.749Z,9.97
2018-08-09T03:56:16.845Z,10.73
2018-08-09T03:58:44.194Z,10.90
2018-08-09T04:01:11.553Z,11.10
2018-08-09T04:03:38.917Z,10.77
2018-08-09T04:06:06.293Z,10.73
2018-08-09T04:08:33.633Z,11.20
2018-08-09T04:11:00.985Z,10.53
2018-08-09T04:13:29.349Z,11.73
2018-08-09T04:15:56.688Z,10.30
2018-08-09T04:18:24.039Z,11.80
2018-08-09T04:20:51.397Z,11.67
2018-08-09T04:23:18.761Z,9.90
2018-08-09T04:25:46.121Z,10.53
2018-08-09T04:28:13.469Z,10.73
2018-08-09T04:30:40.801Z,11.30
2018-08-09T04:33:08.187Z,10.97
2018-08-09T04:35:35.545Z,10.63
2018-08-09T04:38:02.968Z,10.53
2018-08-09T04:40:30.438Z,10.63
2018-08-09T04:42:57.809Z,11.03
2018-08-09T04:45:26.265Z,11.00
2018-08-09T04:47:53.631Z,10.00
2018-08-09T04:50:20.992Z,10.13
2018-08-09T04:52:48.341Z,10.13
2018-08-09T04:55:15.733Z,10.43
2018-08-09T04:57:43.113Z,10.50
2018-08-09T05:00:10.787Z,10.87
2018-08-09T05:02:38.426Z,10.60
2018-08-09T05:05:06.075Z,11.13
2018-08-09T05:07:33.762Z,10.90
2018-08-09T05:10:07.186Z,10.83
2018-08-09T05:12:34.754Z,11.07
2018-08-09T05:15:02.386Z,10.00
2018-08-09T05:17:29.992Z,10.37
2018-08-09T05:19:57.656Z,10.37
2018-08-09T05:22:28.593Z,11.93
2018-08-09T05:24:55.969Z,11.30
2018-08-09T05:27:23.309Z,10.73
2018-08-09T05:29:51.155Z,11.77
2018-08-09T05:32:18.529Z,11.70
2018-08-09T05:34:46.337Z,11.37
2018-08-09T05:37:13.701Z,12.03
2018-08-09T05:39:41.070Z,11.00
2018-08-09T05:42:08.459Z,11.10
2018-08-09T05:44:35.833Z,12.10
2018-08-09T05:47:03.232Z,10.00
2018-08-09T05:49:30.941Z,14.00
2018-08-09T05:51:58.293Z,11.60
2018-08-09T05:54:25.661Z,11.10
2018-08-09T05:56:53.026Z,11.40
2018-08-09T05:59:20.373Z,11.27
2018-08-09T06:01:47.761Z,11.30
2018-08-09T06:06:23.377Z,11.50
2018-08-09T06:08:50.751Z,10.13
2018-08-09T06:11:18.097Z,11.30
2018-08-09T06:13:45.605Z,12.20
2018-08-09T06:16:13.017Z,10.60
2018-08-09T06:18:40.373Z,10.40
2018-08-09T06:21:07.761Z,9.67
2018-08-09T06:23:35.149Z,9.90
2018-08-09T06:26:02.517Z,9.70
2018-08-09T06:28:29.877Z,9.47
2018-08-09T06:30:57.239Z,10.70
2018-08-09T06:33:24.581Z,10.40
2018-08-09T06:35:51.949Z,9.67
2018-08-09T06:38:19.373Z,9.40
2018-08-09T06:40:46.739Z,9.67
2018-08-09T06:43:14.097Z,9.43
2018-08-09T06:45:41.480Z,9.40
2018-08-09T06:48:08.858Z,9.03
2018-08-09T06:50:36.209Z,8.00
2018-08-09T06:53:03.602Z,8.03
2018-08-09T06:55:30.929Z,8.70
2018-08-09T06:57:58.305Z,9.63
2018-08-09T07:00:25.657Z,8.17
2018-08-09T07:02:53.042Z,8.03
2018-08-09T07:05:20.433Z,8.50
2018-08-09T07:07:47.765Z,7.53
2018-08-09T07:10:15.125Z,8.90
2018-08-09T07:12:42.529Z,8.63
2018-08-09T07:15:11.580Z,8.40
2018-08-09T07:17:39.369Z,9.10
2018-08-09T07:20:07.745Z,8.43
2018-08-09T07:22:35.531Z,7.33
2018-08-09T07:25:03.244Z,7.90
2018-08-09T07:27:30.608Z,7.70
2018-08-09T07:29:57.961Z,8.33
2018-08-09T07:32:25.304Z,7.97
2018-08-09T07:34:52.715Z,8.00
2018-08-09T07:37:20.065Z,8.37
2018-08-09T07:39:47.458Z,7.93
2018-08-09T07:42:14.777Z,8.50
2018-08-09T07:44:42.145Z,8.63
2018-08-09T07:47:09.525Z,7.40
2018-08-09T07:49:36.889Z,7.83
2018-08-09T07:52:04.261Z,7.07
2018-08-09T07:54:31.626Z,7.20
2018-08-09T07:56:59.014Z,7.70
2018-08-09T07:59:26.354Z,8.50
2018-08-09T08:01:53.702Z,7.20
2018-08-09T08:04:21.085Z,8.93
2018-08-09T08:06:48.445Z,7.93
2018-08-09T08:09:15.785Z,8.30
2018-08-09T08:11:43.162Z,7.13
2018-08-09T08:14:10.521Z,8.63
2018-08-09T08:16:37.910Z,7.10
2018-08-09T08:19:05.314Z,8.40
2018-08-09T08:21:32.712Z,7.43
2018-08-09T08:24:00.090Z,7.23
2018-08-09T08:26:27.673Z,8.97
2018-08-09T08:28:55.062Z,9.60
2018-08-09T08:31:22.434Z,8.30
2018-08-09T08:33:49.837Z,8.10
2018-08-09T08:36:20.322Z,8.10
2018-08-09T08:38:47.701Z,7.40
2018-08-09T08:41:15.042Z,8.67
2018-08-09T08:43:42.429Z,7.10
2018-08-09T08:46:09.821Z,7.57
2018-08-09T08:48:37.174Z,6.67
2018-08-09T08:51:08.241Z,6.90
2018-08-09T08:53:35.601Z,7.80
2018-08-09T08:56:03.154Z,7.20
2018-08-09T08:58:30.529Z,6.30
2018-08-09T09:00:57.929Z,9.40
2018-08-09T09:03:25.278Z,7.43
2018-08-09T09:05:56.050Z,6.83
2018-08-09T09:08:23.412Z,6.70
2018-08-09T09:10:52.913Z,8.43
2018-08-09T09:13:20.404Z,7.20
2018-08-09T09:15:47.821Z,7.13
2018-08-09T09:18:15.189Z,7.90
2018-08-09T09:20:42.541Z,8.53
2018-08-09T09:23:09.915Z,7.97
2018-08-09T09:25:41.089Z,6.93
2018-08-09T09:28:08.535Z,6.77
2018-08-09T09:30:36.076Z,7.43
2018-08-09T09:33:03.754Z,6.00
2018-08-09T09:35:31.437Z,6.33
2018-08-09T09:37:59.062Z,7.10
2018-08-09T09:40:27.138Z,7.03
2018-08-09T09:42:54.729Z,6.60
2018-08-09T09:45:22.426Z,6.50
2018-08-09T09:47:50.039Z,6.40
2018-08-09T09:50:17.638Z,6.70
2018-08-09T09:52:45.297Z,6.20
2018-08-09T09:55:12.963Z,7.13
2018-08-09T09:57:40.553Z,6.70
2018-08-09T10:00:14.231Z,6.10
2018-08-09T10:02:42.042Z,7.30
2018-08-09T10:05:10.515Z,7.43
2018-08-09T10:07:38.320Z,6.93
2018-08-09T10:10:06.066Z,7.40
2018-08-09T10:12:33.718Z,7.57
2018-08-09T10:15:01.272Z,6.60
2018-08-09T10:17:28.902Z,6.53
2018-08-09T10:22:05.498Z,6.27
2018-08-09T10:24:33.089Z,5.50
2018-08-09T10:27:00.698Z,6.43
2018-08-09T10:29:28.304Z,6.60
2018-08-09T10:31:55.879Z,6.73
2018-08-09T10:34:23.437Z,6.90
2018-08-09T10:36:51.042Z,6.80
2018-08-09T10:39:18.646Z,6.50
2018-08-09T10:41:46.275Z,6.73
2018-08-09T10:44:13.902Z,6.80
2018-08-09T10:46:41.498Z,6.90
2018-08-09T10:49:09.127Z,7.00
2018-08-09T10:51:36.728Z,6.20
2018-08-09T10:54:04.322Z,5.83
2018-08-09T10:56:32.922Z,7.10
2018-08-09T10:59:00.472Z,7.63
2018-08-09T11:01:28.126Z,6.03
2018-08-09T11:03:55.678Z,6.60
2018-08-09T11:06:23.275Z,6.60
2018-08-09T11:08:50.819Z,7.07
2018-08-09T11:11:18.445Z,5.90
2018-08-09T11:13:46.357Z,6.10
2018-08-09T11:16:14.702Z,6.57
2018-08-09T11:18:43.213Z,6.57
2018-08-09T11:21:10.802Z,7.07
2018-08-09T11:23:38.512Z,6.93
2018-08-09T11:26:06.082Z,6.30
2018-08-09T11:28:33.686Z,7.80
2018-08-09T11:31:01.282Z,6.97
2018-08-09T11:33:28.917Z,6.87
2018-08-09T11:35:56.473Z,6.30
2018-08-09T11:38:24.281Z,7.20
2018-08-09T11:40:51.784Z,7.27
2018-08-09T11:43:19.377Z,7.23
2018-08-09T11:45:46.861Z,7.30
2018-08-09T11:48:14.525Z,6.70
2018-08-09T11:50:42.149Z,7.20
2018-08-09T11:53:13.646Z,7.00
2018-08-09T11:55:41.264Z,6.27
2018-08-09T11:58:08.845Z,6.33
2018-08-09T12:00:36.396Z,6.90
2018-08-09T12:03:04.301Z,5.67
2018-08-09T12:05:31.873Z,7.30
2018-08-09T12:07:59.451Z,5.80
2018-08-09T12:10:27.081Z,6.30
2018-08-09T12:12:54.711Z,6.20
2018-08-09T12:15:22.530Z,7.17
2018-08-09T12:17:50.229Z,5.70
2018-08-09T12:20:17.867Z,5.87
2018-08-09T12:22:45.749Z,6.63
2018-08-09T12:25:13.563Z,6.73
2018-08-09T12:27:41.369Z,5.80
2018-08-09T12:30:11.485Z,6.13
2018-08-09T12:32:39.121Z,6.20
2018-08-09T12:35:10.885Z,5.50
2018-08-09T12:37:38.947Z,6.17
2018-08-09T12:40:07.321Z,6.50
2018-08-09T12:42:35.093Z,5.43
2018-08-09T12:45:07.582Z,6.33
2018-08-09T12:47:35.832Z,5.37
2018-08-09T12:50:05.039Z,5.87
2018-08-09T12:52:32.645Z,6.70
2018-08-09T12:55:00.253Z,5.50
2018-08-09T12:57:27.921Z,5.30
2018-08-09T12:59:55.673Z,9.20
2018-08-09T13:02:23.209Z,3.80
2018-08-09T13:04:50.869Z,2.97
2018-08-09T13:07:18.685Z,6.47
2018-08-09T13:09:46.324Z,3.97
2018-08-09T13:12:13.941Z,4.17
2018-08-09T13:14:41.555Z,4.00
2018-08-09T13:17:09.159Z,3.67
2018-08-09T13:19:36.833Z,2.80
2018-08-09T13:22:04.422Z,3.13
2018-08-09T13:24:32.019Z,3.63
2018-08-09T13:26:59.682Z,3.53
2018-08-09T13:29:30.532Z,3.33
2018-08-09T13:31:58.122Z,3.83
2018-08-09T13:34:25.777Z,4.03
2018-08-09T13:36:53.433Z,3.73
2018-08-09T13:39:21.090Z,3.80
2018-08-09T13:41:48.754Z,4.60
2018-08-09T13:44:16.413Z,3.60
2018-08-09T13:46:44.084Z,4.57
2018-08-09T13:49:11.729Z,3.83
2018-08-09T13:51:39.330Z,5.00
2018-08-09T13:54:06.987Z,4.10
2018-08-09T13:56:34.553Z,3.87
2018-08-09T13:59:02.571Z,4.77
2018-08-09T14:01:30.218Z,4.50
2018-08-09T14:03:57.891Z,4.23
2018-08-09T14:06:29.030Z,4.23
2018-08-09T14:08:56.715Z,5.20
2018-08-09T14:11:24.269Z,4.20
2018-08-09T14:13:52.157Z,4.20
2018-08-09T14:16:19.773Z,4.60
2018-08-09T14:18:47.425Z,5.33
2018-08-09T14:21:15.143Z,5.43
2018-08-09T14:23:42.729Z,4.47
2018-08-09T14:26:10.417Z,4.43
2018-08-09T14:28:38.058Z,5.07
2018-08-09T14:31:05.785Z,4.70
2018-08-09T14:33:33.377Z,5.10
2018-08-09T14:36:01.106Z,4.50
2018-08-09T14:38:28.745Z,5.50
2018-08-09T14:40:56.481Z,5.97
2018-08-09T14:43:24.108Z,5.40
2018-08-09T14:45:51.697Z,5.87
2018-08-09T14:48:19.389Z,5.10
2018-08-09T14:50:47.073Z,6.00
2018-08-09T14:53:14.673Z,4.90
2018-08-09T14:55:45.728Z,4.63
2018-08-09T14:58:13.349Z,5.30
2018-08-09T15:00:40.929Z,4.60
2018-08-09T15:03:08.478Z,3.80
2018-08-09T15:05:36.167Z,3.87
2018-08-09T15:08:03.773Z,3.73
2018-08-09T15:10:31.456Z,3.40
2018-08-09T15:12:59.126Z,3.20
2018-08-09T15:15:26.770Z,3.80
2018-08-09T15:17:54.458Z,4.07
2018-08-09T15:20:22.135Z,4.00
2018-08-09T15:22:49.563Z,3.73
2018-08-09T15:25:16.934Z,3.47
2018-08-09T15:27:44.281Z,2.53
2018-08-09T15:30:15.463Z,3.10
2018-08-09T15:32:42.838Z,3.17
2018-08-09T15:35:10.322Z,3.63
2018-08-09T15:37:37.733Z,2.60
2018-08-09T15:40:06.468Z,2.67
2018-08-09T15:42:33.887Z,2.87
2018-08-09T15:45:01.278Z,3.23
2018-08-09T15:47:28.783Z,2.83
2018-08-09T15:49:56.033Z,2.77
2018-08-09T15:52:24.378Z,2.50
2018-08-09T15:54:51.849Z,2.70
2018-08-09T15:57:19.239Z,2.13
2018-08-09T15:59:46.633Z,2.10
2018-08-09T16:02:14.037Z,1.90
2018-08-09T16:04:41.389Z,2.30
2018-08-09T16:07:08.741Z,2.20
2018-08-09T16:09:36.129Z,2.23
2018-08-09T16:12:03.541Z,2.40
2018-08-09T16:14:30.930Z,1.90
2018-08-09T16:16:58.454Z,2.60
2018-08-09T16:19:25.826Z,2.17
2018-08-09T16:21:53.222Z,2.73
2018-08-09T16:24:20.621Z,2.47
2018-08-09T16:26:48.025Z,2.23
2018-08-09T16:29:15.445Z,2.40
2018-08-09T16:31:42.849Z,2.63
2018-08-09T16:34:10.303Z,2.60
2018-08-09T16:36:38.693Z,2.17
2018-08-09T16:39:09.189Z,2.27
2018-08-09T16:41:37.308Z,2.63
2018-08-09T16:44:05.170Z,2.47
2018-08-09T16:46:32.869Z,2.23
2018-08-09T16:49:00.574Z,2.60
2018-08-09T16:51:28.310Z,2.33
2018-08-09T16:53:56.037Z,2.60
2018-08-09T16:56:27.289Z,2.17
2018-08-09T16:58:54.946Z,3.10
2018-08-09T17:01:22.693Z,2.80
2018-08-09T17:03:50.446Z,2.73
2018-08-09T17:06:18.207Z,1.90
2018-08-09T17:08:45.983Z,2.37
2018-08-09T17:11:13.649Z,2.67
2018-08-09T17:13:41.406Z,2.30
2018-08-09T17:16:09.070Z,3.30
2018-08-09T17:18:36.944Z,2.20
2018-08-09T17:21:04.623Z,2.20
2018-08-09T17:23:32.314Z,2.07
2018-08-09T17:25:59.967Z,2.10
2018-08-09T17:28:27.642Z,1.80
2018-08-09T17:30:55.282Z,3.23
2018-08-09T17:33:22.987Z,2.70
2018-08-09T17:35:50.706Z,2.20
2018-08-09T17:38:21.565Z,2.10
2018-08-09T17:40:49.302Z,2.60
2018-08-09T17:43:16.974Z,2.47
2018-08-09T17:45:44.661Z,2.30
2018-08-09T17:48:12.380Z,2.30
2018-08-09T17:50:43.220Z,2.17
2018-08-09T17:53:11.013Z,2.90
2018-08-09T17:55:38.606Z,1.93
2018-08-09T17:58:06.330Z,1.57
2018-08-09T18:00:37.545Z,2.37
2018-08-09T18:03:05.438Z,2.00
2018-08-09T18:05:33.036Z,1.90
2018-08-09T18:08:01.579Z,1.93
2018-08-09T18:10:31.410Z,2.00
2018-08-09T18:12:59.111Z,2.30
2018-08-09T18:15:27.866Z,1.30
2018-08-09T18:17:56.268Z,2.13
2018-08-09T18:21:02.929Z,1.73
2018-08-09T18:23:30.347Z,1.63
2018-08-09T18:25:57.715Z,1.50
2018-08-09T18:28:25.114Z,1.77
2018-08-09T18:30:52.618Z,1.67
2018-08-09T18:33:19.978Z,1.53
2018-08-09T18:35:47.519Z,1.80
2018-08-09T18:38:15.100Z,1.30
2018-08-09T18:40:42.538Z,1.40
2018-08-09T18:43:10.151Z,1.63
2018-08-09T18:45:41.002Z,1.50
2018-08-09T18:48:08.377Z,1.53
2018-08-09T18:50:35.850Z,1.17
2018-08-09T18:53:03.489Z,1.80
2018-08-09T18:55:30.913Z,1.83
2018-08-09T18:57:58.501Z,1.40
2018-08-09T19:00:27.809Z,1.33
2018-08-09T19:02:55.361Z,0.90
2018-08-09T19:05:23.077Z,1.33
2018-08-09T19:07:50.609Z,1.13
2018-08-09T19:10:28.398Z,1.10
2018-08-09T19:12:59.716Z,1.47
2018-08-09T19:15:27.136Z,1.60
2018-08-09T19:17:54.554Z,1.53
2018-08-09T19:20:27.681Z,1.37
2018-08-09T19:22:55.130Z,1.73
2018-08-09T19:25:22.562Z,1.13
2018-08-09T19:27:50.114Z,1.37
2018-08-09T19:30:19.265Z,1.43
2018-08-09T19:32:46.726Z,1.83
2018-08-09T19:35:15.309Z,2.07
2018-08-09T19:37:42.737Z,1.73
2018-08-09T19:40:11.581Z,1.80
2018-08-09T19:42:39.426Z,1.30
2018-08-09T19:45:08.990Z,1.10
2018-08-09T19:47:36.693Z,1.50
2018-08-09T19:50:09.306Z,1.60
2018-08-09T19:52:37.182Z,1.23
2018-08-09T19:55:05.049Z,1.60
2018-08-09T19:57:32.509Z,1.70
2018-08-09T20:00:00.015Z,1.73
2018-08-09T20:02:27.382Z,2.00
2018-08-09T20:04:54.781Z,1.60
2018-08-09T20:07:22.198Z,1.67
2018-08-09T20:09:49.571Z,1.27
2018-08-09T20:12:17.069Z,1.50
2018-08-09T20:14:44.506Z,2.00
2018-08-09T20:17:11.910Z,1.30
2018-08-09T20:19:39.313Z,1.90
2018-08-09T20:22:12.011Z,1.20
2018-08-09T20:24:39.493Z,1.20
2018-08-09T20:27:06.949Z,1.63
2018-08-09T20:29:34.500Z,1.63
2018-08-09T20:32:01.870Z,1.40
2018-08-09T20:34:29.262Z,1.30
2018-08-09T20:36:56.745Z,1.27
2018-08-09T20:39:24.173Z,1.40
2018-08-09T20:41:51.590Z,1.70
2018-08-09T20:44:18.965Z,1.40
2018-08-09T20:46:46.618Z,0.93
2018-08-09T20:49:17.943Z,1.30
2018-08-09T20:51:45.591Z,1.33
2018-08-09T20:54:13.246Z,1.07
2018-08-09T20:56:40.954Z,1.30
2018-08-09T20:59:08.613Z,1.20
2018-08-09T21:01:37.346Z,1.07
2018-08-09T21:04:06.241Z,1.00
2018-08-09T21:06:33.958Z,0.80
2018-08-09T21:09:01.652Z,1.23
2018-08-09T21:11:29.379Z,1.30
2018-08-09T21:13:57.142Z,1.23
2018-08-09T21:16:24.887Z,1.10
2018-08-09T21:18:52.582Z,1.20
2018-08-09T21:21:20.275Z,1.10
2018-08-09T21:23:47.948Z,1.30
2018-08-09T21:26:15.699Z,1.30
2018-08-09T21:28:43.510Z,1.00
2018-08-09T21:31:11.238Z,1.10
2018-08-09T21:33:38.962Z,1.43
2018-08-09T21:36:08.710Z,1.10
2018-08-09T21:38:36.370Z,1.13
2018-08-09T21:41:04.082Z,1.03
2018-08-09T21:43:31.753Z,0.77
2018-08-09T21:45:59.446Z,1.07
2018-08-09T21:48:27.167Z,1.07
2018-08-09T21:50:54.953Z,1.10
2018-08-09T21:53:22.619Z,0.97
2018-08-09T21:55:50.375Z,1.23
2018-08-09T21:58:18.113Z,1.07
2018-08-09T22:00:51.111Z,1.40
2018-08-09T22:03:21.243Z,1.03
2018-08-09T22:05:54.480Z,1.10
2018-08-09T22:08:27.925Z,1.13
2018-08-09T22:11:01.794Z,1.40
2018-08-09T22:13:35.353Z,1.10
2018-08-09T22:16:09.650Z,0.80
2018-08-09T22:18:43.050Z,0.70
2018-08-09T22:21:16.590Z,1.00
2018-08-09T22:23:44.546Z,1.23
2018-08-09T22:26:12.434Z,1.10
2018-08-09T22:28:40.475Z,0.93
2018-08-09T22:31:11.618Z,0.83
2018-08-09T22:33:39.270Z,1.60
2018-08-09T22:36:07.024Z,0.70
2018-08-09T22:38:34.732Z,0.73
2018-08-09T22:41:02.951Z,0.97
2018-08-09T22:43:30.659Z,0.90
2018-08-09T22:45:58.381Z,1.17
2018-08-09T22:48:26.187Z,0.90
2018-08-09T22:50:53.947Z,0.80
2018-08-09T22:53:21.673Z,0.53
2018-08-09T22:55:49.359Z,0.93
2018-08-09T22:58:17.073Z,0.50
2018-08-09T23:00:44.963Z,0.80
2018-08-09T23:03:14.476Z,0.60
2018-08-09T23:05:42.182Z,0.60
2018-08-09T23:08:12.094Z,0.67
2018-08-09T23:10:40.671Z,0.80
2018-08-09T23:13:09.230Z,0.60
2018-08-09T23:15:36.957Z,0.77
2018-08-09T23:18:05.283Z,0.80
2018-08-09T23:20:33.030Z,0.80
2018-08-09T23:23:00.790Z,0.50
2018-08-09T23:25:28.501Z,0.50
2018-08-09T23:27:56.195Z,0.53
2018-08-09T23:30:23.911Z,0.70
2018-08-09T23:32:51.626Z,0.60
2018-08-09T23:35:19.288Z,0.50
2018-08-09T23:37:47.024Z,0.73
2018-08-09T23:40:14.682Z,0.77
2018-08-09T23:42:42.378Z,0.97
2018-08-09T23:45:10.331Z,0.50
2018-08-09T23:47:39.405Z,0.77
2018-08-09T23:50:08.947Z,0.50
2018-08-09T23:52:37.420Z,0.70
2018-08-09T23:55:06.086Z,0.77
2018-08-09T23:57:33.783Z,0.30
